Time,TemperatureF,DewpointF,PressureIn,WindDirection,WindDirectionDegrees,WindSpeedMPH,WindSpeedGustMPH,Humidity,HourlyPrecipIn,Conditions,Clouds,dailyrainin,SoftwareType,DateUTC
2013-02-13 00:03:00,33.6,26.4,29.83,NW,315,0.0,0.0,75,0.00,,,0.00,WUHU216HW,2013-02-13 05:03:00,
2013-02-13 00:08:00,33.8,26.6,29.83,NW,315,0.0,0.0,75,0.00,,,0.00,WUHU216HW,2013-02-13 05:08:00,
2013-02-13 00:13:00,33.9,26.7,29.83,NW,315,0.0,0.0,75,0.00,,,0.00,WUHU216HW,2013-02-13 05:13:00,
2013-02-13 00:18:00,33.9,26.7,29.83,NW,315,0.0,0.0,75,0.00,,,0.00,WUHU216HW,2013-02-13 05:18:00,
2013-02-13 00:23:00,34.1,26.9,29.83,NW,315,0.0,0.0,75,0.00,,,0.00,WUHU216HW,2013-02-13 05:23:00,
2013-02-13 00:28:00,34.3,27.1,29.83,NW,315,0.0,0.0,75,0.00,,,0.00,WUHU216HW,2013-02-13 05:28:00,
2013-02-13 00:33:00,34.3,27.1,29.82,NW,315,0.0,0.0,75,0.00,,,0.00,WUHU216HW,2013-02-13 05:33:00,
2013-02-13 00:38:00,34.3,27.1,29.82,NW,315,0.0,0.0,75,0.00,,,0.00,WUHU216HW,2013-02-13 05:38:00,
2013-02-13 00:43:00,34.3,27.1,29.82,NW,315,0.0,0.0,75,0.00,,,0.00,WUHU216HW,2013-02-13 05:43:00,
2013-02-13 00:48:00,34.3,27.1,29.83,NW,315,0.0,0.0,75,0.00,,,0.00,WUHU216HW,2013-02-13 05:48:00,
2013-02-13 00:53:00,34.3,27.1,29.82,NW,315,0.0,0.0,75,0.00,,,0.00,WUHU216HW,2013-02-13 05:53:00,
2013-02-13 00:58:00,34.3,27.1,29.83,NW,315,0.0,0.0,75,0.00,,,0.00,WUHU216HW,2013-02-13 05:58:00,
2013-02-13 01:03:00,34.3,27.1,29.82,NW,315,0.0,0.0,75,0.00,,,0.00,WUHU216HW,2013-02-13 06:03:00,
2013-02-13 01:08:00,34.3,27.1,29.81,NW,315,0.0,0.0,75,0.00,,,0.00,WUHU216HW,2013-02-13 06:08:00,
2013-02-13 01:13:00,34.1,26.9,29.82,NW,315,0.0,0.0,75,0.00,,,0.00,WUHU216HW,2013-02-13 06:13:00,
2013-02-13 01:18:00,33.9,26.7,29.82,NW,315,0.0,0.0,75,0.00,,,0.00,WUHU216HW,2013-02-13 06:18:00,
2013-02-13 01:23:00,33.9,27.1,29.82,NW,315,0.0,0.0,76,0.00,,,0.00,WUHU216HW,2013-02-13 06:23:00,
2013-02-13 01:28:00,33.9,27.1,29.82,NW,315,0.0,0.0,76,0.00,,,0.00,WUHU216HW,2013-02-13 06:28:00,
2013-02-13 01:33:00,33.9,27.1,29.82,NW,315,0.0,0.0,76,0.00,,,0.00,WUHU216HW,2013-02-13 06:33:00,
2013-02-13 01:38:00,33.9,27.1,29.82,NW,315,0.0,0.0,76,0.00,,,0.00,WUHU216HW,2013-02-13 06:38:00,
2013-02-13 01:43:00,33.9,27.1,29.82,NW,315,0.0,0.0,76,0.00,,,0.00,WUHU216HW,2013-02-13 06:43:00,
2013-02-13 01:48:00,33.8,26.9,29.82,NW,315,0.0,0.0,76,0.00,,,0.00,WUHU216HW,2013-02-13 06:48:00,
2013-02-13 01:53:00,33.6,26.7,29.82,NW,315,0.0,0.0,76,0.00,,,0.00,WUHU216HW,2013-02-13 06:53:00,
2013-02-13 01:58:00,33.6,26.7,29.82,NW,315,0.0,0.0,76,0.00,,,0.00,WUHU216HW,2013-02-13 06:58:00,
2013-02-13 02:03:00,33.6,26.7,29.82,NW,315,0.0,0.0,76,0.00,,,0.00,WUHU216HW,2013-02-13 07:03:00,
2013-02-13 02:08:00,33.6,26.7,29.83,NW,315,0.0,0.0,76,0.00,,,0.00,WUHU216HW,2013-02-13 07:08:00,
2013-02-13 02:13:00,33.4,26.6,29.83,NW,315,0.0,0.0,76,0.00,,,0.00,WUHU216HW,2013-02-13 07:13:00,
2013-02-13 02:18:00,33.4,26.9,29.82,NW,315,0.0,0.0,77,0.00,,,0.00,WUHU216HW,2013-02-13 07:18:00,
2013-02-13 02:23:00,33.4,26.9,29.82,NW,315,0.0,0.0,77,0.00,,,0.00,WUHU216HW,2013-02-13 07:23:00,
2013-02-13 02:28:00,33.2,26.7,29.82,NW,315,0.0,0.0,77,0.00,,,0.00,WUHU216HW,2013-02-13 07:28:00,
2013-02-13 02:33:00,33.2,26.7,29.82,NW,315,0.0,0.0,77,0.00,,,0.00,WUHU216HW,2013-02-13 07:33:00,
2013-02-13 02:38:00,33.0,26.6,29.82,NW,315,0.0,0.0,77,0.00,,,0.00,WUHU216HW,2013-02-13 07:38:00,
2013-02-13 02:43:00,33.0,26.6,29.82,NW,315,0.0,0.0,77,0.00,,,0.00,WUHU216HW,2013-02-13 07:43:00,
2013-02-13 02:48:00,33.0,26.6,29.82,NW,315,0.0,0.0,77,0.00,,,0.00,WUHU216HW,2013-02-13 07:48:00,
2013-02-13 02:53:00,33.2,26.7,29.81,NW,315,0.0,0.0,77,0.00,,,0.00,WUHU216HW,2013-02-13 07:53:00,
2013-02-13 02:58:00,33.4,26.9,29.81,North,0,0.0,0.0,77,0.00,,,0.00,WUHU216HW,2013-02-13 07:58:00,
2013-02-13 03:03:00,33.4,26.9,29.81,North,0,0.0,0.0,77,0.00,,,0.00,WUHU216HW,2013-02-13 08:03:00,
2013-02-13 03:08:00,33.4,26.9,29.81,North,0,0.0,0.0,77,0.00,,,0.00,WUHU216HW,2013-02-13 08:08:00,
2013-02-13 03:13:00,33.6,27.4,29.80,North,0,0.0,0.0,78,0.00,,,0.00,WUHU216HW,2013-02-13 08:13:00,
2013-02-13 03:18:00,33.6,27.4,29.80,North,0,0.0,0.0,78,0.00,,,0.00,WUHU216HW,2013-02-13 08:18:00,
2013-02-13 03:23:00,33.6,27.4,29.80,North,0,0.0,0.0,78,0.00,,,0.00,WUHU216HW,2013-02-13 08:23:00,
2013-02-13 03:28:00,33.6,27.4,29.80,North,0,0.0,0.0,78,0.00,,,0.00,WUHU216HW,2013-02-13 08:28:00,
2013-02-13 03:33:00,33.6,27.4,29.79,North,0,0.0,0.0,78,0.00,,,0.00,WUHU216HW,2013-02-13 08:33:00,
2013-02-13 03:38:00,33.6,27.4,29.79,North,0,0.0,0.0,78,0.00,,,0.00,WUHU216HW,2013-02-13 08:38:00,
2013-02-13 03:43:00,33.6,27.4,29.79,NW,315,0.0,0.0,78,0.00,,,0.00,WUHU216HW,2013-02-13 08:43:00,
2013-02-13 03:48:00,33.6,27.4,29.79,NNE,23,0.8,5.3,78,0.00,,,0.00,WUHU216HW,2013-02-13 08:48:00,
2013-02-13 03:53:00,33.6,27.4,29.79,NNE,23,0.0,5.3,78,0.00,,,0.00,WUHU216HW,2013-02-13 08:53:00,
2013-02-13 03:58:00,33.6,27.4,29.78,NNE,23,0.0,0.8,78,0.00,,,0.00,WUHU216HW,2013-02-13 08:58:00,
2013-02-13 04:03:00,33.6,27.4,29.78,NNE,23,0.8,0.8,78,0.00,,,0.00,WUHU216HW,2013-02-13 09:03:00,
2013-02-13 04:08:00,33.6,27.4,29.78,NNE,23,0.0,0.8,78,0.00,,,0.00,WUHU216HW,2013-02-13 09:08:00,
2013-02-13 04:13:00,33.6,27.4,29.78,NNE,23,0.0,0.8,78,0.00,,,0.00,WUHU216HW,2013-02-13 09:13:00,
2013-02-13 04:18:00,33.6,27.4,29.78,NNE,23,0.0,0.0,78,0.00,,,0.00,WUHU216HW,2013-02-13 09:18:00,
2013-02-13 04:23:00,33.6,27.4,29.77,NNE,23,0.0,0.0,78,0.00,,,0.00,WUHU216HW,2013-02-13 09:23:00,
2013-02-13 04:28:00,33.6,27.4,29.77,NNW,338,0.0,0.0,78,0.00,,,0.00,WUHU216HW,2013-02-13 09:28:00,
2013-02-13 04:33:00,33.6,27.4,29.77,NNW,338,0.0,0.0,78,0.00,,,0.00,WUHU216HW,2013-02-13 09:33:00,
2013-02-13 04:38:00,33.6,27.4,29.77,North,0,0.0,0.0,78,0.00,,,0.00,WUHU216HW,2013-02-13 09:38:00,
2013-02-13 04:43:00,33.6,27.4,29.77,North,0,0.0,3.1,78,0.00,,,0.00,WUHU216HW,2013-02-13 09:43:00,
2013-02-13 04:48:00,33.4,27.2,29.77,NNE,23,0.0,3.1,78,0.00,,,0.00,WUHU216HW,2013-02-13 09:48:00,
2013-02-13 04:53:00,33.4,27.2,29.77,NNW,338,3.8,4.2,78,0.00,,,0.00,WUHU216HW,2013-02-13 09:53:00,
2013-02-13 04:58:00,33.2,27.0,29.76,North,0,5.8,5.8,78,0.00,,,0.00,WUHU216HW,2013-02-13 09:58:00,
2013-02-13 05:03:00,33.0,26.9,29.76,NW,315,0.2,5.8,78,0.00,,,0.00,WUHU216HW,2013-02-13 10:03:00,
2013-02-13 05:08:00,33.0,26.9,29.76,NNW,338,0.0,5.8,78,0.00,,,0.00,WUHU216HW,2013-02-13 10:08:00,
2013-02-13 05:13:00,32.9,26.7,29.76,North,0,0.0,4.6,78,0.00,,,0.00,WUHU216HW,2013-02-13 10:13:00,
2013-02-13 05:18:00,32.9,26.7,29.75,North,0,0.0,5.3,78,0.00,,,0.00,WUHU216HW,2013-02-13 10:18:00,
2013-02-13 05:23:00,32.7,26.6,29.76,NNW,338,0.0,5.3,78,0.00,,,0.00,WUHU216HW,2013-02-13 10:23:00,
2013-02-13 05:28:00,32.7,26.6,29.75,NW,315,0.0,0.0,78,0.00,,,0.00,WUHU216HW,2013-02-13 10:28:00,
2013-02-13 05:33:00,32.7,26.6,29.76,North,0,0.0,0.0,78,0.00,,,0.00,WUHU216HW,2013-02-13 10:33:00,
2013-02-13 05:38:00,32.7,26.6,29.76,NNE,23,0.0,0.0,78,0.00,,,0.00,WUHU216HW,2013-02-13 10:38:00,
2013-02-13 05:43:00,32.5,26.4,29.76,ENE,68,3.3,3.3,78,0.00,,,0.00,WUHU216HW,2013-02-13 10:43:00,
2013-02-13 05:48:00,32.5,26.4,29.76,NE,45,0.0,3.3,78,0.00,,,0.00,WUHU216HW,2013-02-13 10:48:00,
2013-02-13 05:53:00,32.5,26.4,29.75,NE,45,0.0,3.3,78,0.00,,,0.00,WUHU216HW,2013-02-13 10:53:00,
2013-02-13 05:58:00,32.5,26.2,29.74,NNE,23,0.0,0.0,78,0.00,,,0.00,WUHU216HW,2013-02-13 10:58:00,
2013-02-13 06:03:00,32.5,26.4,29.74,North,0,2.2,2.2,78,0.00,,,0.00,WUHU216HW,2013-02-13 11:03:00,
2013-02-13 06:08:00,32.3,26.2,29.74,NNE,23,3.3,3.3,78,0.00,,,0.00,WUHU216HW,2013-02-13 11:08:00,
2013-02-13 06:13:00,32.3,26.2,29.74,NE,45,0.0,3.3,78,0.00,,,0.00,WUHU216HW,2013-02-13 11:13:00,
2013-02-13 06:18:00,32.3,26.2,29.74,NE,45,0.0,0.0,78,0.00,,,0.00,WUHU216HW,2013-02-13 11:18:00,
2013-02-13 06:23:00,32.3,26.2,29.74,NE,45,0.0,0.0,78,0.00,,,0.00,WUHU216HW,2013-02-13 11:23:00,
2013-02-13 06:28:00,32.3,26.2,29.74,NNW,338,0.0,3.8,78,0.00,,,0.00,WUHU216HW,2013-02-13 11:28:00,
2013-02-13 06:33:00,32.3,26.2,29.75,NNE,23,0.0,3.8,78,0.00,,,0.00,WUHU216HW,2013-02-13 11:33:00,
2013-02-13 06:38:00,32.3,25.9,29.75,NNE,23,0.0,0.0,77,0.00,,,0.00,WUHU216HW,2013-02-13 11:38:00,
2013-02-13 06:43:00,32.3,25.9,29.75,NNW,338,0.0,0.0,77,0.00,,,0.00,WUHU216HW,2013-02-13 11:43:00,
2013-02-13 06:48:00,32.3,25.9,29.75,NNW,338,0.0,0.0,77,0.00,,,0.00,WUHU216HW,2013-02-13 11:48:00,
2013-02-13 06:53:00,32.3,25.9,29.75,NNW,338,0.0,0.0,77,0.00,,,0.00,WUHU216HW,2013-02-13 11:53:00,
2013-02-13 06:58:00,32.1,25.7,29.75,North,0,0.0,2.9,77,0.00,,,0.00,WUHU216HW,2013-02-13 11:58:00,
2013-02-13 07:03:00,32.1,25.7,29.74,WNW,293,0.0,2.9,77,0.00,,,0.00,WUHU216HW,2013-02-13 12:03:00,
2013-02-13 07:08:00,32.1,25.7,29.75,West,270,0.0,0.0,77,0.00,,,0.00,WUHU216HW,2013-02-13 12:08:00,
2013-02-13 07:13:00,32.1,25.7,29.75,NNW,338,1.7,4.0,77,0.00,,,0.00,WUHU216HW,2013-02-13 12:13:00,
2013-02-13 07:18:00,32.1,25.7,29.75,NNE,23,0.0,4.0,77,0.00,,,0.00,WUHU216HW,2013-02-13 12:18:00,
2013-02-13 07:23:00,32.1,25.7,29.75,NNW,338,0.6,2.2,77,0.00,,,0.00,WUHU216HW,2013-02-13 12:23:00,
2013-02-13 07:28:00,32.1,25.7,29.76,NNW,338,0.0,1.3,77,0.00,,,0.00,WUHU216HW,2013-02-13 12:28:00,
2013-02-13 07:33:00,32.1,25.7,29.76,WNW,293,0.0,4.0,77,0.00,,,0.00,WUHU216HW,2013-02-13 12:33:00,
2013-02-13 07:38:00,32.1,25.7,29.75,NW,315,0.0,4.4,77,0.00,,,0.00,WUHU216HW,2013-02-13 12:38:00,
2013-02-13 07:43:00,32.1,25.7,29.75,NNW,338,0.0,4.4,77,0.00,,,0.00,WUHU216HW,2013-02-13 12:43:00,
2013-02-13 07:48:00,32.1,25.7,29.75,NNE,23,0.0,0.0,77,0.00,,,0.00,WUHU216HW,2013-02-13 12:48:00,
2013-02-13 07:53:00,32.1,25.7,29.75,North,0,0.0,2.2,77,0.00,,,0.00,WUHU216HW,2013-02-13 12:53:00,
2013-02-13 07:58:00,32.1,25.7,29.75,NNE,23,0.0,2.2,77,0.00,,,0.00,WUHU216HW,2013-02-13 12:58:00,
2013-02-13 08:03:00,32.1,25.7,29.76,NNE,23,0.0,0.0,77,0.00,,,0.00,WUHU216HW,2013-02-13 13:03:00,
2013-02-13 08:08:00,32.1,25.7,29.76,West,270,0.0,0.0,77,0.00,,,0.00,WUHU216HW,2013-02-13 13:08:00,
2013-02-13 08:13:00,32.1,25.7,29.76,NNW,338,0.0,1.3,77,0.00,,,0.00,WUHU216HW,2013-02-13 13:13:00,
2013-02-13 08:18:00,32.1,25.7,29.77,NNW,338,0.0,1.3,77,0.00,,,0.00,WUHU216HW,2013-02-13 13:18:00,
2013-02-13 08:23:00,32.1,25.7,29.78,NNW,338,0.0,0.0,77,0.00,,,0.00,WUHU216HW,2013-02-13 13:23:00,
2013-02-13 08:28:00,32.1,25.7,29.78,NNW,338,0.0,0.0,77,0.00,,,0.00,WUHU216HW,2013-02-13 13:28:00,
2013-02-13 08:33:00,32.1,25.7,29.78,NNW,338,0.0,0.0,77,0.00,,,0.00,WUHU216HW,2013-02-13 13:33:00,
2013-02-13 08:38:00,32.1,25.7,29.78,NNW,338,0.0,0.0,77,0.00,,,0.00,WUHU216HW,2013-02-13 13:38:00,
2013-02-13 08:43:00,32.1,25.7,29.79,NNW,338,0.0,0.0,77,0.00,,,0.00,WUHU216HW,2013-02-13 13:43:00,
2013-02-13 08:48:00,32.1,25.7,29.78,NNW,338,0.0,0.0,77,0.00,,,0.00,WUHU216HW,2013-02-13 13:48:00,
2013-02-13 08:53:00,32.3,25.9,29.78,NNW,338,0.0,0.0,77,0.00,,,0.00,WUHU216HW,2013-02-13 13:53:00,
2013-02-13 08:58:00,32.3,25.9,29.78,NNW,338,0.0,0.0,77,0.00,,,0.00,WUHU216HW,2013-02-13 13:58:00,
2013-02-13 09:03:00,32.3,25.9,29.78,NNW,338,0.0,0.0,77,0.00,,,0.00,WUHU216HW,2013-02-13 14:03:00,
2013-02-13 09:08:00,32.3,25.9,29.78,NW,315,0.0,0.0,77,0.00,,,0.00,WUHU216HW,2013-02-13 14:08:00,
2013-02-13 09:13:00,32.3,25.9,29.78,NW,315,0.0,0.0,77,0.00,,,0.00,WUHU216HW,2013-02-13 14:13:00,
2013-02-13 09:18:00,32.3,25.9,29.78,NW,315,0.0,0.0,77,0.00,,,0.00,WUHU216HW,2013-02-13 14:18:00,
2013-02-13 09:23:00,32.5,26.1,29.78,NW,315,0.0,0.0,77,0.00,,,0.00,WUHU216HW,2013-02-13 14:23:00,
2013-02-13 09:28:00,32.5,26.1,29.78,NW,315,0.0,0.0,77,0.00,,,0.00,WUHU216HW,2013-02-13 14:28:00,
2013-02-13 09:33:00,32.5,26.1,29.78,NW,315,0.0,0.0,77,0.00,,,0.00,WUHU216HW,2013-02-13 14:33:00,
2013-02-13 09:38:00,32.7,26.2,29.79,NW,315,0.0,0.0,77,0.00,,,0.00,WUHU216HW,2013-02-13 14:38:00,
2013-02-13 09:43:00,32.5,25.7,29.78,NW,315,0.0,0.0,76,0.00,,,0.00,WUHU216HW,2013-02-13 14:43:00,
2013-02-13 09:48:00,32.7,25.9,29.79,NW,315,0.0,0.0,76,0.00,,,0.00,WUHU216HW,2013-02-13 14:48:00,
2013-02-13 09:53:00,32.5,25.7,29.78,West,270,0.0,0.0,76,0.00,,,0.00,WUHU216HW,2013-02-13 14:53:00,
2013-02-13 09:58:00,32.7,25.9,29.78,West,270,0.0,0.0,76,0.00,,,0.00,WUHU216HW,2013-02-13 14:58:00,
2013-02-13 10:03:00,32.7,25.9,29.78,West,270,0.0,0.0,76,0.00,,,0.00,WUHU216HW,2013-02-13 15:03:00,
2013-02-13 10:08:00,32.7,25.9,29.77,West,270,0.0,0.0,76,0.00,,,0.00,WUHU216HW,2013-02-13 15:08:00,
2013-02-13 10:13:00,32.7,25.9,29.77,West,270,0.0,0.0,76,0.00,,,0.00,WUHU216HW,2013-02-13 15:13:00,
2013-02-13 10:18:00,32.7,25.9,29.77,NW,315,0.4,0.4,76,0.00,,,0.00,WUHU216HW,2013-02-13 15:18:00,
2013-02-13 10:23:00,32.7,25.9,29.78,NW,315,0.0,0.4,76,0.00,,,0.00,WUHU216HW,2013-02-13 15:23:00,
2013-02-13 10:28:00,32.9,26.1,29.78,WNW,293,0.0,3.8,76,0.00,,,0.00,WUHU216HW,2013-02-13 15:28:00,
2013-02-13 10:33:00,32.7,25.9,29.77,WNW,293,0.0,3.8,76,0.00,,,0.00,WUHU216HW,2013-02-13 15:33:00,
2013-02-13 10:38:00,32.9,26.1,29.77,NW,315,0.0,0.0,76,0.00,,,0.00,WUHU216HW,2013-02-13 15:38:00,
2013-02-13 10:43:00,33.0,26.2,29.77,West,270,0.0,0.0,76,0.00,,,0.00,WUHU216HW,2013-02-13 15:43:00,
2013-02-13 10:48:00,33.0,25.9,29.77,WNW,293,0.0,0.0,75,0.00,,,0.00,WUHU216HW,2013-02-13 15:48:00,
2013-02-13 10:53:00,33.0,25.9,29.77,WNW,293,0.0,0.0,75,0.00,,,0.00,WUHU216HW,2013-02-13 15:53:00,
2013-02-13 10:58:00,33.2,26.1,29.77,NNE,23,0.0,0.0,75,0.00,,,0.00,WUHU216HW,2013-02-13 15:58:00,
2013-02-13 11:03:00,33.4,26.2,29.77,NNE,23,0.0,0.0,75,0.00,,,0.00,WUHU216HW,2013-02-13 16:03:00,
2013-02-13 11:08:00,33.6,26.4,29.77,North,0,0.0,0.0,75,0.00,,,0.00,WUHU216HW,2013-02-13 16:08:00,
2013-02-13 11:13:00,33.8,26.6,29.77,NNW,338,0.0,0.0,75,0.00,,,0.00,WUHU216HW,2013-02-13 16:13:00,
2013-02-13 11:18:00,33.8,26.6,29.77,WNW,293,0.0,0.0,75,0.00,,,0.00,WUHU216HW,2013-02-13 16:18:00,
2013-02-13 11:23:00,33.9,26.7,29.77,West,270,0.0,0.0,75,0.00,,,0.00,WUHU216HW,2013-02-13 16:23:00,
2013-02-13 11:28:00,34.3,27.1,29.77,NW,315,0.0,0.0,75,0.00,,,0.00,WUHU216HW,2013-02-13 16:28:00,
2013-02-13 11:33:00,34.3,27.1,29.77,WSW,248,0.0,0.0,75,0.00,,,0.00,WUHU216HW,2013-02-13 16:33:00,
2013-02-13 11:38:00,34.3,26.8,29.77,WSW,248,2.6,2.6,74,0.00,,,0.00,WUHU216HW,2013-02-13 16:38:00,
2013-02-13 11:43:00,34.3,26.8,29.77,WSW,248,0.0,2.6,74,0.00,,,0.00,WUHU216HW,2013-02-13 16:43:00,
2013-02-13 11:48:00,34.3,26.8,29.77,WSW,248,0.0,2.6,74,0.00,,,0.00,WUHU216HW,2013-02-13 16:48:00,
2013-02-13 11:53:00,34.3,26.4,29.77,WSW,248,0.0,0.0,73,0.00,,,0.00,WUHU216HW,2013-02-13 16:53:00,
2013-02-13 11:58:00,34.7,26.8,29.77,WSW,248,0.0,0.0,73,0.00,,,0.00,WUHU216HW,2013-02-13 16:58:00,
2013-02-13 12:03:00,34.8,27.0,29.77,West,270,0.0,0.0,73,0.00,,,0.00,WUHU216HW,2013-02-13 17:03:00,
2013-02-13 12:08:00,34.8,27.0,29.77,West,270,0.0,0.0,73,0.00,,,0.00,WUHU216HW,2013-02-13 17:08:00,
2013-02-13 12:13:00,35.2,27.3,29.77,West,270,0.0,0.0,73,0.00,,,0.00,WUHU216HW,2013-02-13 17:13:00,
2013-02-13 12:18:00,35.4,27.5,29.77,West,270,0.0,0.0,73,0.00,,,0.00,WUHU216HW,2013-02-13 17:18:00,
2013-02-13 12:23:00,35.4,27.5,29.76,NW,315,0.0,0.0,73,0.00,,,0.00,WUHU216HW,2013-02-13 17:23:00,
2013-02-13 12:28:00,35.7,27.9,29.76,NNW,338,0.0,0.0,73,0.00,,,0.00,WUHU216HW,2013-02-13 17:28:00,
2013-02-13 12:33:00,35.7,27.6,29.76,NW,315,0.0,0.0,72,0.00,,,0.00,WUHU216HW,2013-02-13 17:33:00,
2013-02-13 12:38:00,35.9,27.7,29.76,NNW,338,0.0,0.0,72,0.00,,,0.00,WUHU216HW,2013-02-13 17:38:00,
2013-02-13 12:43:00,36.1,27.9,29.76,NW,315,0.0,0.0,72,0.00,,,0.00,WUHU216HW,2013-02-13 17:43:00,
2013-02-13 12:48:00,36.3,28.1,29.75,WSW,248,0.0,0.0,72,0.00,,,0.00,WUHU216HW,2013-02-13 17:48:00,
2013-02-13 12:53:00,36.3,28.1,29.76,WSW,248,0.0,0.0,72,0.00,,,0.00,WUHU216HW,2013-02-13 17:53:00,
2013-02-13 12:58:00,36.5,28.0,29.75,WSW,248,0.0,0.0,71,0.00,,,0.00,WUHU216HW,2013-02-13 17:58:00,
2013-02-13 13:04:00,36.6,28.1,29.75,WSW,248,0.0,0.0,71,0.00,,,0.00,WUHU216HW,2013-02-13 18:04:00,
2013-02-13 13:09:00,36.8,28.3,29.75,SW,225,0.0,0.0,71,0.00,,,0.00,WUHU216HW,2013-02-13 18:09:00,
2013-02-13 13:14:00,37.2,28.4,29.75,SW,225,0.0,0.0,70,0.00,,,0.00,WUHU216HW,2013-02-13 18:14:00,
2013-02-13 13:19:00,37.4,28.9,29.75,NNE,23,0.0,0.0,71,0.00,,,0.00,WUHU216HW,2013-02-13 18:19:00,
2013-02-13 13:24:00,37.9,29.3,29.75,West,270,0.2,0.2,71,0.00,,,0.00,WUHU216HW,2013-02-13 18:24:00,
2013-02-13 13:29:00,38.3,29.0,29.75,SSW,203,0.0,0.2,69,0.00,,,0.00,WUHU216HW,2013-02-13 18:29:00,
2013-02-13 13:34:00,38.4,29.1,29.75,WSW,248,0.0,0.0,69,0.00,,,0.00,WUHU216HW,2013-02-13 18:34:00,
2013-02-13 13:39:00,38.8,29.4,29.75,SSW,203,4.2,4.2,69,0.00,,,0.00,WUHU216HW,2013-02-13 18:39:00,
2013-02-13 13:44:00,39.0,29.2,29.74,SSW,203,0.0,4.2,68,0.00,,,0.00,WUHU216HW,2013-02-13 18:44:00,
2013-02-13 13:49:00,39.3,29.2,29.74,NW,315,2.4,4.0,67,0.00,,,0.00,WUHU216HW,2013-02-13 18:49:00,
2013-02-13 13:54:00,39.5,29.4,29.74,NW,315,0.0,2.4,67,0.00,,,0.00,WUHU216HW,2013-02-13 18:54:00,
2013-02-13 13:59:00,39.9,29.4,29.74,SW,225,0.0,2.4,66,0.00,,,0.00,WUHU216HW,2013-02-13 18:59:00,
2013-02-13 14:04:00,40.2,29.7,29.74,NNW,338,0.4,5.1,66,0.00,,,0.00,WUHU216HW,2013-02-13 19:04:00,
2013-02-13 14:09:00,40.6,29.7,29.74,WSW,248,0.0,5.1,65,0.00,,,0.00,WUHU216HW,2013-02-13 19:09:00,
2013-02-13 14:14:00,41.1,30.2,29.73,NW,315,2.9,2.9,65,0.00,,,0.00,WUHU216HW,2013-02-13 19:14:00,
2013-02-13 14:19:00,41.3,30.0,29.74,SW,225,7.8,7.8,64,0.00,,,0.00,WUHU216HW,2013-02-13 19:19:00,
2013-02-13 14:24:00,41.5,29.8,29.74,South,180,0.0,7.8,63,0.00,,,0.00,WUHU216HW,2013-02-13 19:24:00,
2013-02-13 14:29:00,41.7,30.0,29.73,SSE,158,0.0,4.0,63,0.00,,,0.00,WUHU216HW,2013-02-13 19:29:00,
2013-02-13 14:34:00,42.0,30.3,29.73,WSW,248,5.8,5.8,63,0.00,,,0.00,WUHU216HW,2013-02-13 19:34:00,
2013-02-13 14:39:00,42.6,30.8,29.73,North,0,0.0,5.8,63,0.00,,,0.00,WUHU216HW,2013-02-13 19:39:00,
2013-02-13 14:44:00,42.6,30.4,29.73,SSW,203,0.0,5.5,62,0.00,,,0.00,WUHU216HW,2013-02-13 19:44:00,
2013-02-13 14:49:00,42.9,30.7,29.73,WSW,248,2.4,2.4,62,0.00,,,0.00,WUHU216HW,2013-02-13 19:49:00,
2013-02-13 14:54:00,43.3,30.7,29.73,WNW,293,5.5,5.5,61,0.00,,,0.00,WUHU216HW,2013-02-13 19:54:00,
2013-02-13 14:59:00,43.5,30.5,29.73,SSW,203,1.1,5.5,60,0.00,,,0.00,WUHU216HW,2013-02-13 19:59:00,
2013-02-13 15:04:00,43.5,30.5,29.73,NNW,338,3.8,5.5,60,0.00,,,0.00,WUHU216HW,2013-02-13 20:04:00,
2013-02-13 15:09:00,43.7,30.2,29.73,WSW,248,2.2,6.0,59,0.00,,,0.00,WUHU216HW,2013-02-13 20:09:00,
2013-02-13 15:14:00,43.7,30.2,29.73,NNW,338,6.4,6.4,59,0.00,,,0.00,WUHU216HW,2013-02-13 20:14:00,
2013-02-13 15:19:00,43.8,30.4,29.72,WNW,293,6.4,6.4,59,0.00,,,0.00,WUHU216HW,2013-02-13 20:19:00,
2013-02-13 15:24:00,44.0,30.2,29.72,NW,315,4.9,6.4,58,0.00,,,0.00,WUHU216HW,2013-02-13 20:24:00,
2013-02-13 15:29:00,44.2,29.9,29.72,SSE,158,0.0,6.4,57,0.00,,,0.00,WUHU216HW,2013-02-13 20:29:00,
2013-02-13 15:34:00,44.4,30.1,29.73,SW,225,0.0,4.9,57,0.00,,,0.00,WUHU216HW,2013-02-13 20:34:00,
2013-02-13 15:39:00,44.4,30.1,29.73,SW,225,4.9,4.9,57,0.00,,,0.00,WUHU216HW,2013-02-13 20:39:00,
2013-02-13 15:44:00,44.7,30.0,29.73,WNW,293,0.0,4.9,56,0.00,,,0.00,WUHU216HW,2013-02-13 20:44:00,
2013-02-13 15:49:00,44.9,30.1,29.73,SSW,203,0.0,5.8,56,0.00,,,0.00,WUHU216HW,2013-02-13 20:49:00,
2013-02-13 15:54:00,44.9,30.1,29.73,SW,225,0.0,5.8,56,0.00,,,0.00,WUHU216HW,2013-02-13 20:54:00,
2013-02-13 15:59:00,45.1,29.4,29.73,West,270,7.1,7.1,54,0.00,,,0.00,WUHU216HW,2013-02-13 20:59:00,
2013-02-13 16:04:00,45.1,29.4,29.73,SSE,158,6.2,7.1,54,0.00,,,0.00,WUHU216HW,2013-02-13 21:04:00,
2013-02-13 16:09:00,45.3,29.1,29.73,SSW,203,5.8,6.2,53,0.00,,,0.00,WUHU216HW,2013-02-13 21:09:00,
2013-02-13 16:14:00,45.3,29.1,29.73,WSW,248,5.1,5.8,53,0.00,,,0.00,WUHU216HW,2013-02-13 21:14:00,
2013-02-13 16:19:00,45.3,28.8,29.73,NNW,338,0.0,5.8,52,0.00,,,0.00,WUHU216HW,2013-02-13 21:19:00,
2013-02-13 16:24:00,45.5,28.8,29.73,NW,315,0.0,4.0,52,0.00,,,0.00,WUHU216HW,2013-02-13 21:24:00,
2013-02-13 16:29:00,45.5,28.8,29.74,South,180,0.0,4.0,52,0.00,,,0.00,WUHU216HW,2013-02-13 21:29:00,
2013-02-13 16:34:00,45.6,29.0,29.74,West,270,8.5,8.5,52,0.00,,,0.00,WUHU216HW,2013-02-13 21:34:00,
2013-02-13 16:39:00,45.6,28.5,29.73,SSW,203,2.9,8.5,51,0.00,,,0.00,WUHU216HW,2013-02-13 21:39:00,
2013-02-13 16:44:00,45.8,29.1,29.73,SW,225,0.0,2.9,52,0.00,,,0.00,WUHU216HW,2013-02-13 21:44:00,
2013-02-13 16:49:00,46.0,28.8,29.74,WSW,248,0.0,6.4,51,0.00,,,0.00,WUHU216HW,2013-02-13 21:49:00,
2013-02-13 16:54:00,46.0,29.3,29.74,WSW,248,0.0,6.4,52,0.00,,,0.00,WUHU216HW,2013-02-13 21:54:00,
2013-02-13 16:59:00,46.0,29.3,29.74,West,270,6.0,6.0,52,0.00,,,0.00,WUHU216HW,2013-02-13 21:59:00,
2013-02-13 17:04:00,46.2,29.4,29.74,SSE,158,4.6,6.0,52,0.00,,,0.00,WUHU216HW,2013-02-13 22:04:00,
2013-02-13 17:09:00,46.0,29.3,29.74,WSW,248,0.0,6.0,52,0.00,,,0.00,WUHU216HW,2013-02-13 22:09:00,
2013-02-13 17:14:00,46.0,29.3,29.74,South,180,2.4,4.6,52,0.00,,,0.00,WUHU216HW,2013-02-13 22:14:00,
2013-02-13 17:19:00,45.6,29.0,29.74,WSW,248,0.0,2.4,52,0.00,,,0.00,WUHU216HW,2013-02-13 22:19:00,
2013-02-13 17:24:00,45.6,29.0,29.74,SW,225,0.0,0.0,52,0.00,,,0.00,WUHU216HW,2013-02-13 22:24:00,
2013-02-13 17:29:00,45.6,29.0,29.74,West,270,0.0,4.4,52,0.00,,,0.00,WUHU216HW,2013-02-13 22:29:00,
2013-02-13 17:34:00,45.5,28.8,29.74,WSW,248,0.0,4.4,52,0.00,,,0.00,WUHU216HW,2013-02-13 22:34:00,
2013-02-13 17:39:00,45.5,28.8,29.74,SW,225,0.0,0.0,52,0.00,,,0.00,WUHU216HW,2013-02-13 22:39:00,
2013-02-13 17:44:00,45.1,28.5,29.75,SW,225,0.0,0.0,52,0.00,,,0.00,WUHU216HW,2013-02-13 22:44:00,
2013-02-13 17:49:00,44.9,28.8,29.75,SW,225,0.0,0.0,53,0.00,,,0.00,WUHU216HW,2013-02-13 22:49:00,
2013-02-13 17:54:00,44.7,28.6,29.75,SSW,203,0.0,0.0,53,0.00,,,0.00,WUHU216HW,2013-02-13 22:54:00,
2013-02-13 17:59:00,44.4,28.3,29.75,West,270,0.0,0.0,53,0.00,,,0.00,WUHU216HW,2013-02-13 22:59:00,
2013-02-13 18:04:00,44.2,28.1,29.76,WSW,248,0.0,2.9,53,0.00,,,0.00,WUHU216HW,2013-02-13 23:04:00,
2013-02-13 18:09:00,43.8,28.2,29.76,SW,225,0.0,3.3,54,0.00,,,0.00,WUHU216HW,2013-02-13 23:09:00,
2013-02-13 18:14:00,43.7,28.0,29.76,WSW,248,0.0,3.3,54,0.00,,,0.00,WUHU216HW,2013-02-13 23:14:00,
2013-02-13 18:19:00,43.5,27.9,29.76,West,270,0.0,0.0,54,0.00,,,0.00,WUHU216HW,2013-02-13 23:19:00,
2013-02-13 18:24:00,43.3,28.1,29.76,SW,225,0.0,0.0,55,0.00,,,0.00,WUHU216HW,2013-02-13 23:24:00,
2013-02-13 18:29:00,43.1,28.0,29.76,SW,225,0.0,0.0,55,0.00,,,0.00,WUHU216HW,2013-02-13 23:29:00,
2013-02-13 18:34:00,42.8,27.9,29.77,SW,225,0.0,0.0,55,0.00,,,0.00,WUHU216HW,2013-02-13 23:34:00,
2013-02-13 18:39:00,42.4,27.7,29.77,WSW,248,0.0,0.0,56,0.00,,,0.00,WUHU216HW,2013-02-13 23:39:00,
2013-02-13 18:44:00,42.2,27.5,29.77,WSW,248,0.0,0.0,56,0.00,,,0.00,WUHU216HW,2013-02-13 23:44:00,
2013-02-13 18:49:00,41.7,27.5,29.77,WSW,248,0.0,0.0,57,0.00,,,0.00,WUHU216HW,2013-02-13 23:49:00,
2013-02-13 18:54:00,41.7,27.5,29.77,WSW,248,0.0,0.0,57,0.00,,,0.00,WUHU216HW,2013-02-13 23:54:00,
2013-02-13 18:59:00,41.5,27.3,29.77,WSW,248,0.0,0.0,57,0.00,,,0.00,WUHU216HW,2013-02-13 23:59:00,
2013-02-13 19:04:00,40.8,27.1,29.77,WSW,248,0.0,0.0,58,0.00,,,0.00,WUHU216HW,2013-02-14 00:04:00,
2013-02-13 19:09:00,40.6,26.9,29.77,WSW,248,0.0,0.0,58,0.00,,,0.00,WUHU216HW,2013-02-14 00:09:00,
2013-02-13 19:14:00,40.2,27.0,29.78,WSW,248,0.0,0.0,59,0.00,,,0.00,WUHU216HW,2013-02-14 00:14:00,
2013-02-13 19:19:00,39.9,27.1,29.78,SW,225,0.0,0.0,60,0.00,,,0.00,WUHU216HW,2013-02-14 00:19:00,
2013-02-13 19:24:00,39.5,26.7,29.78,SW,225,0.0,0.0,60,0.00,,,0.00,WUHU216HW,2013-02-14 00:24:00,
2013-02-13 19:29:00,39.2,26.4,29.78,SW,225,0.0,0.0,60,0.00,,,0.00,WUHU216HW,2013-02-14 00:29:00,
2013-02-13 19:34:00,38.8,26.4,29.78,SW,225,0.0,0.0,61,0.00,,,0.00,WUHU216HW,2013-02-14 00:34:00,
2013-02-13 19:39:00,38.4,26.1,29.78,SW,225,0.0,0.0,61,0.00,,,0.00,WUHU216HW,2013-02-14 00:39:00,
2013-02-13 19:44:00,38.3,26.3,29.78,SW,225,0.0,0.0,62,0.00,,,0.00,WUHU216HW,2013-02-14 00:44:00,
2013-02-13 19:49:00,37.9,26.0,29.79,SW,225,0.0,0.0,62,0.00,,,0.00,WUHU216HW,2013-02-14 00:49:00,
2013-02-13 19:54:00,37.7,25.8,29.79,SSE,158,0.0,0.0,62,0.00,,,0.00,WUHU216HW,2013-02-14 00:54:00,
2013-02-13 19:59:00,37.5,26.0,29.79,SSE,158,0.0,0.0,63,0.00,,,0.00,WUHU216HW,2013-02-14 00:59:00,
2013-02-13 20:04:00,37.4,25.9,29.79,SSE,158,0.0,0.0,63,0.00,,,0.00,WUHU216HW,2013-02-14 01:04:00,
2013-02-13 20:09:00,37.2,26.1,29.79,SSE,158,0.0,0.0,64,0.00,,,0.00,WUHU216HW,2013-02-14 01:09:00,
2013-02-13 20:14:00,37.2,26.1,29.79,SSE,158,0.0,0.0,64,0.00,,,0.00,WUHU216HW,2013-02-14 01:14:00,
2013-02-13 20:19:00,36.8,26.1,29.79,SSE,158,0.0,0.0,65,0.00,,,0.00,WUHU216HW,2013-02-14 01:19:00,
2013-02-13 20:24:00,36.6,26.0,29.79,SSE,158,0.0,0.0,65,0.00,,,0.00,WUHU216HW,2013-02-14 01:24:00,
2013-02-13 20:30:00,36.6,26.0,29.79,SSE,158,0.0,0.0,65,0.00,,,0.00,WUHU216HW,2013-02-14 01:30:00,
2013-02-13 20:35:00,36.5,26.2,29.79,SSE,158,0.0,0.0,66,0.00,,,0.00,WUHU216HW,2013-02-14 01:35:00,
2013-02-13 20:40:00,36.3,26.0,29.78,SSE,158,0.0,0.0,66,0.00,,,0.00,WUHU216HW,2013-02-14 01:40:00,
2013-02-13 20:45:00,36.1,25.8,29.78,SSE,158,0.0,0.0,66,0.00,,,0.00,WUHU216HW,2013-02-14 01:45:00,
2013-02-13 20:50:00,35.7,25.8,29.78,SSE,158,0.0,0.0,67,0.00,,,0.00,WUHU216HW,2013-02-14 01:50:00,
2013-02-13 20:55:00,35.7,25.8,29.78,SSE,158,0.0,0.0,67,0.00,,,0.00,WUHU216HW,2013-02-14 01:55:00,
2013-02-13 21:00:00,35.6,26.0,29.79,SSE,158,0.0,0.0,68,0.00,,,0.00,WUHU216HW,2013-02-14 02:00:00,
2013-02-13 21:05:00,35.4,25.8,29.79,SSE,158,0.0,0.0,68,0.00,,,0.00,WUHU216HW,2013-02-14 02:05:00,
2013-02-13 21:10:00,35.4,25.8,29.79,SSE,158,0.0,0.0,68,0.00,,,0.00,WUHU216HW,2013-02-14 02:10:00,
2013-02-13 21:15:00,35.2,26.0,29.79,SSE,158,0.0,0.0,69,0.00,,,0.00,WUHU216HW,2013-02-14 02:15:00,
2013-02-13 21:20:00,35.2,26.0,29.79,SSE,158,0.0,0.0,69,0.00,,,0.00,WUHU216HW,2013-02-14 02:20:00,
2013-02-13 21:25:00,35.0,25.8,29.79,SSE,158,0.0,0.0,69,0.00,,,0.00,WUHU216HW,2013-02-14 02:25:00,
2013-02-13 21:30:00,34.8,25.7,29.79,SSE,158,0.0,0.0,69,0.00,,,0.00,WUHU216HW,2013-02-14 02:30:00,
2013-02-13 21:35:00,34.7,25.8,29.79,SSE,158,0.0,0.0,70,0.00,,,0.00,WUHU216HW,2013-02-14 02:35:00,
2013-02-13 21:40:00,34.5,25.7,29.79,SSE,158,0.0,0.0,70,0.00,,,0.00,WUHU216HW,2013-02-14 02:40:00,
2013-02-13 21:45:00,34.3,25.8,29.79,SSE,158,0.0,0.0,71,0.00,,,0.00,WUHU216HW,2013-02-14 02:45:00,
2013-02-13 21:50:00,34.3,25.8,29.79,SSE,158,0.0,0.0,71,0.00,,,0.00,WUHU216HW,2013-02-14 02:50:00,
2013-02-13 21:55:00,34.3,25.8,29.79,SSE,158,0.0,0.0,71,0.00,,,0.00,WUHU216HW,2013-02-14 02:55:00,
2013-02-13 22:00:00,34.3,25.8,29.80,SSE,158,0.0,0.0,71,0.00,,,0.00,WUHU216HW,2013-02-14 03:00:00,
2013-02-13 22:05:00,34.1,25.6,29.80,SSE,158,0.0,0.0,71,0.00,,,0.00,WUHU216HW,2013-02-14 03:05:00,
2013-02-13 22:10:00,33.9,25.8,29.80,SSE,158,0.0,0.0,72,0.00,,,0.00,WUHU216HW,2013-02-14 03:10:00,
2013-02-13 22:15:00,33.8,25.6,29.80,SSE,158,0.0,0.0,72,0.00,,,0.00,WUHU216HW,2013-02-14 03:15:00,
2013-02-13 22:20:00,33.6,25.4,29.80,SSE,158,0.0,0.0,72,0.00,,,0.00,WUHU216HW,2013-02-14 03:20:00,
2013-02-13 22:25:00,33.6,25.4,29.80,SSE,158,0.0,0.0,72,0.00,,,0.00,WUHU216HW,2013-02-14 03:25:00,
2013-02-13 22:30:00,33.4,25.6,29.80,SSE,158,0.0,0.0,73,0.00,,,0.00,WUHU216HW,2013-02-14 03:30:00,
2013-02-13 22:35:00,33.4,25.6,29.80,SSE,158,0.0,0.0,73,0.00,,,0.00,WUHU216HW,2013-02-14 03:35:00,
2013-02-13 22:40:00,33.4,25.6,29.80,SSE,158,0.0,0.0,73,0.00,,,0.00,WUHU216HW,2013-02-14 03:40:00,
2013-02-13 22:45:00,33.2,25.4,29.80,SSE,158,0.0,0.0,73,0.00,,,0.00,WUHU216HW,2013-02-14 03:45:00,
2013-02-13 22:50:00,33.2,25.4,29.80,SSE,158,0.0,0.0,73,0.00,,,0.00,WUHU216HW,2013-02-14 03:50:00,
2013-02-13 22:55:00,33.2,25.6,29.80,SSE,158,0.0,0.0,74,0.00,,,0.00,WUHU216HW,2013-02-14 03:55:00,
2013-02-13 23:00:00,33.0,25.6,29.80,SSE,158,0.0,0.0,74,0.00,,,0.00,WUHU216HW,2013-02-14 04:00:00,
2013-02-13 23:05:00,33.0,25.6,29.80,SSE,158,0.0,0.0,74,0.00,,,0.00,WUHU216HW,2013-02-14 04:05:00,
2013-02-13 23:10:00,32.9,25.4,29.80,SSE,158,0.0,0.0,74,0.00,,,0.00,WUHU216HW,2013-02-14 04:10:00,
2013-02-13 23:15:00,32.9,25.4,29.80,SSE,158,0.0,0.0,74,0.00,,,0.00,WUHU216HW,2013-02-14 04:15:00,
2013-02-13 23:20:00,32.7,25.3,29.80,SSE,158,0.0,0.0,74,0.00,,,0.00,WUHU216HW,2013-02-14 04:20:00,
2013-02-13 23:25:00,32.7,25.6,29.80,SSE,158,0.0,0.0,75,0.00,,,0.00,WUHU216HW,2013-02-14 04:25:00,
2013-02-13 23:30:00,32.7,25.6,29.80,SSE,158,0.0,0.0,75,0.00,,,0.00,WUHU216HW,2013-02-14 04:30:00,
2013-02-13 23:35:00,32.7,25.6,29.80,SSE,158,0.0,0.0,75,0.00,,,0.00,WUHU216HW,2013-02-14 04:35:00,
2013-02-13 23:40:00,32.7,25.6,29.80,SSE,158,0.0,0.0,75,0.00,,,0.00,WUHU216HW,2013-02-14 04:40:00,
2013-02-13 23:45:00,32.5,25.4,29.80,SSE,158,0.0,0.0,75,0.00,,,0.00,WUHU216HW,2013-02-14 04:45:00,
2013-02-13 23:50:00,32.5,25.7,29.80,SSE,158,0.0,0.0,76,0.00,,,0.00,WUHU216HW,2013-02-14 04:50:00,
2013-02-13 23:55:00,32.5,25.6,29.80,SSE,158,0.0,0.0,76,0.00,,,0.00,WUHU216HW,2013-02-14 04:55:00,